sensor_id;sensor_type;location;lat;lon;timestamp;pressure;altitude;pressure_sealevel;temperature;humidity
68145;BME280;55400;51.824;-0.196;2022-08-19T00:02:01;100308.22;;;20.65;63.80
68145;BME280;55400;51.824;-0.196;2022-08-19T00:04:35;100321.88;;;20.72;62.95
68145;BME280;55400;51.824;-0.196;2022-08-19T00:07:06;100319.47;;;20.69;63.35
68145;BME280;55400;51.824;-0.196;2022-08-19T00:09:39;100319.03;;;20.64;63.71
68145;BME280;55400;51.824;-0.196;2022-08-19T00:12:07;100319.31;;;20.61;63.92
68145;BME280;55400;51.824;-0.196;2022-08-19T00:14:48;100320.91;;;20.54;64.51
68145;BME280;55400;51.824;-0.196;2022-08-19T00:17:17;100315.25;;;20.47;64.93
68145;BME280;55400;51.824;-0.196;2022-08-19T00:19:51;100314.84;;;20.42;65.13
68145;BME280;55400;51.824;-0.196;2022-08-19T00:22:21;100311.47;;;20.40;65.65
68145;BME280;55400;51.824;-0.196;2022-08-19T00:24:48;100316.13;;;20.38;65.88
68145;BME280;55400;51.824;-0.196;2022-08-19T00:27:16;100313.56;;;20.36;65.99
68145;BME280;55400;51.824;-0.196;2022-08-19T00:29:52;100310.34;;;20.32;66.01
68145;BME280;55400;51.824;-0.196;2022-08-19T00:32:20;100306.84;;;20.32;66.23
68145;BME280;55400;51.824;-0.196;2022-08-19T00:34:51;100308.50;;;20.33;66.37
68145;BME280;55400;51.824;-0.196;2022-08-19T00:37:24;100304.84;;;20.34;66.20
68145;BME280;55400;51.824;-0.196;2022-08-19T00:39:53;100308.94;;;20.38;66.40
68145;BME280;55400;51.824;-0.196;2022-08-19T00:42:27;100311.47;;;20.40;66.54
68145;BME280;55400;51.824;-0.196;2022-08-19T00:44:59;100308.53;;;20.43;66.03
68145;BME280;55400;51.824;-0.196;2022-08-19T00:47:34;100306.69;;;20.43;66.46
68145;BME280;55400;51.824;-0.196;2022-08-19T00:50:08;100299.34;;;20.45;66.43
68145;BME280;55400;51.824;-0.196;2022-08-19T00:52:41;100297.66;;;20.44;66.63
68145;BME280;55400;51.824;-0.196;2022-08-19T00:55:25;100300.03;;;20.38;66.86
68145;BME280;55400;51.824;-0.196;2022-08-19T00:58:11;100301.34;;;20.34;67.31
68145;BME280;55400;51.824;-0.196;2022-08-19T01:00:50;100302.19;;;20.34;67.21
68145;BME280;55400;51.824;-0.196;2022-08-19T01:03:20;100296.00;;;20.34;67.37
68145;BME280;55400;51.824;-0.196;2022-08-19T01:05:51;100290.78;;;20.32;67.37
68145;BME280;55400;51.824;-0.196;2022-08-19T01:08:23;100303.28;;;20.31;67.62
68145;BME280;55400;51.824;-0.196;2022-08-19T01:10:55;100297.25;;;20.29;67.76
68145;BME280;55400;51.824;-0.196;2022-08-19T01:13:27;100297.25;;;20.29;67.73
68145;BME280;55400;51.824;-0.196;2022-08-19T01:16:22;100294.72;;;20.28;67.76
68145;BME280;55400;51.824;-0.196;2022-08-19T01:18:50;100295.25;;;20.31;67.88
68145;BME280;55400;51.824;-0.196;2022-08-19T01:21:39;100297.25;;;20.29;68.27
68145;BME280;55400;51.824;-0.196;2022-08-19T01:24:08;100298.81;;;20.32;67.74
68145;BME280;55400;51.824;-0.196;2022-08-19T01:26:47;100298.94;;;20.30;68.00
68145;BME280;55400;51.824;-0.196;2022-08-19T01:29:16;100294.44;;;20.31;68.04
68145;BME280;55400;51.824;-0.196;2022-08-19T01:31:45;100290.91;;;20.30;67.84
68145;BME280;55400;51.824;-0.196;2022-08-19T01:34:20;100295.25;;;20.31;68.05
68145;BME280;55400;51.824;-0.196;2022-08-19T01:36:47;100303.44;;;20.30;68.07
68145;BME280;55400;51.824;-0.196;2022-08-19T01:39:21;100299.38;;;20.26;68.09
68145;BME280;55400;51.824;-0.196;2022-08-19T01:41:51;100307.69;;;20.23;68.29
68145;BME280;55400;51.824;-0.196;2022-08-19T01:44:23;100301.78;;;20.19;68.33
68145;BME280;55400;51.824;-0.196;2022-08-19T01:46:54;100307.97;;;20.20;68.50
68145;BME280;55400;51.824;-0.196;2022-08-19T01:49:23;100301.78;;;20.19;68.53
68145;BME280;55400;51.824;-0.196;2022-08-19T01:51:54;100314.16;;;20.20;68.44
68145;BME280;55400;51.824;-0.196;2022-08-19T01:54:25;100309.94;;;20.18;68.72
68145;BME280;55400;51.824;-0.196;2022-08-19T01:57:08;100307.69;;;20.13;68.85
68145;BME280;55400;51.824;-0.196;2022-08-19T01:59:41;100298.94;;;20.11;68.79
68145;BME280;55400;51.824;-0.196;2022-08-19T02:02:10;100296.25;;;20.11;68.87
68145;BME280;55400;51.824;-0.196;2022-08-19T02:04:46;100297.28;;;20.10;69.10
68145;BME280;55400;51.824;-0.196;2022-08-19T02:07:18;100299.94;;;20.10;69.37
68145;BME280;55400;51.824;-0.196;2022-08-19T02:09:45;100298.53;;;20.06;69.15
68145;BME280;55400;51.824;-0.196;2022-08-19T02:12:18;100297.25;;;20.00;69.31
68145;BME280;55400;51.824;-0.196;2022-08-19T02:14:44;100306.28;;;19.99;69.63
68145;BME280;55400;51.824;-0.196;2022-08-19T02:17:13;100308.38;;;19.86;70.28
68145;BME280;55400;51.824;-0.196;2022-08-19T02:19:40;100315.16;;;19.90;69.61
68145;BME280;55400;51.824;-0.196;2022-08-19T02:22:12;100311.88;;;19.86;69.81
68145;BME280;55400;51.824;-0.196;2022-08-19T02:24:39;100317.53;;;19.83;69.75
68145;BME280;55400;51.824;-0.196;2022-08-19T02:27:08;100314.13;;;19.81;69.96
68145;BME280;55400;51.824;-0.196;2022-08-19T02:29:37;100311.47;;;19.81;70.02
68145;BME280;55400;51.824;-0.196;2022-08-19T02:32:05;100308.66;;;19.83;70.03
68145;BME280;55400;51.824;-0.196;2022-08-19T02:34:33;100314.13;;;19.81;70.43
68145;BME280;55400;51.824;-0.196;2022-08-19T02:37:00;100314.28;;;19.80;70.10
68145;BME280;55400;51.824;-0.196;2022-08-19T02:39:31;100302.88;;;19.77;70.60
68145;BME280;55400;51.824;-0.196;2022-08-19T02:41:59;100317.09;;;19.78;70.40
68145;BME280;55400;51.824;-0.196;2022-08-19T02:44:29;100318.09;;;19.77;70.56
68145;BME280;55400;51.824;-0.196;2022-08-19T02:46:57;100321.59;;;19.77;70.80
68145;BME280;55400;51.824;-0.196;2022-08-19T02:49:30;100317.81;;;19.80;70.52
68145;BME280;55400;51.824;-0.196;2022-08-19T02:52:01;100322.91;;;19.83;70.49
68145;BME280;55400;51.824;-0.196;2022-08-19T02:54:52;100314.88;;;19.83;70.75
68145;BME280;55400;51.824;-0.196;2022-08-19T02:57:23;100314.88;;;19.83;70.57
68145;BME280;55400;51.824;-0.196;2022-08-19T02:59:56;100316.25;;;19.87;70.89
68145;BME280;55400;51.824;-0.196;2022-08-19T03:02:25;100315.97;;;19.90;70.99
68145;BME280;55400;51.824;-0.196;2022-08-19T03:04:53;100317.53;;;19.93;70.48
68145;BME280;55400;51.824;-0.196;2022-08-19T03:07:36;100314.88;;;19.93;70.80
68145;BME280;55400;51.824;-0.196;2022-08-19T03:10:06;100320.91;;;19.95;70.63
68145;BME280;55400;51.824;-0.196;2022-08-19T03:12:42;100315.84;;;19.92;70.94
68145;BME280;55400;51.824;-0.196;2022-08-19T03:15:10;100314.72;;;19.94;70.83
68145;BME280;55400;51.824;-0.196;2022-08-19T03:17:37;100320.78;;;19.96;70.85
68145;BME280;55400;51.824;-0.196;2022-08-19T03:20:08;100316.25;;;19.97;70.88
68145;BME280;55400;51.824;-0.196;2022-08-19T03:22:35;100311.91;;;19.96;70.94
68145;BME280;55400;51.824;-0.196;2022-08-19T03:25:04;100314.59;;;19.96;71.05
68145;BME280;55400;51.824;-0.196;2022-08-19T03:27:33;100320.78;;;19.96;71.01
68145;BME280;55400;51.824;-0.196;2022-08-19T03:30:11;100321.75;;;19.95;70.75
68145;BME280;55400;51.824;-0.196;2022-08-19T03:32:40;100319.22;;;19.94;71.08
68145;BME280;55400;51.824;-0.196;2022-08-19T03:35:12;100317.81;;;19.90;71.10
68145;BME280;55400;51.824;-0.196;2022-08-19T03:37:43;100316.97;;;19.89;71.33
68145;BME280;55400;51.824;-0.196;2022-08-19T03:40:10;100315.28;;;19.88;71.52
68145;BME280;55400;51.824;-0.196;2022-08-19T03:42:42;100315.97;;;19.90;71.57
68145;BME280;55400;51.824;-0.196;2022-08-19T03:45:22;100316.25;;;19.87;71.69
68145;BME280;55400;51.824;-0.196;2022-08-19T03:47:50;100318.78;;;19.89;71.77
68145;BME280;55400;51.824;-0.196;2022-08-19T03:50:19;100316.97;;;19.89;71.80
68145;BME280;55400;51.824;-0.196;2022-08-19T03:53:06;100321.47;;;19.89;72.29
68145;BME280;55400;51.824;-0.196;2022-08-19T03:55:49;100319.06;;;19.86;72.51
68145;BME280;55400;51.824;-0.196;2022-08-19T03:58:17;100317.09;;;19.88;72.61
68145;BME280;55400;51.824;-0.196;2022-08-19T04:00:48;100323.31;;;19.88;72.57
68145;BME280;55400;51.824;-0.196;2022-08-19T04:03:20;100319.78;;;19.88;72.58
68145;BME280;55400;51.824;-0.196;2022-08-19T04:05:53;100320.09;;;19.85;72.97
68145;BME280;55400;51.824;-0.196;2022-08-19T04:08:22;100311.88;;;19.86;73.18
68145;BME280;55400;51.824;-0.196;2022-08-19T04:10:54;100316.25;;;19.87;73.13
68145;BME280;55400;51.824;-0.196;2022-08-19T04:14:23;100316.53;;;19.84;73.29
68145;BME280;55400;51.824;-0.196;2022-08-19T04:16:56;100315.69;;;19.84;73.24
68145;BME280;55400;51.824;-0.196;2022-08-19T04:19:25;100319.22;;;19.84;73.76
68145;BME280;55400;51.824;-0.196;2022-08-19T04:21:55;100320.09;;;19.85;73.73
68145;BME280;55400;51.824;-0.196;2022-08-19T04:24:24;100313.03;;;19.84;73.78
68145;BME280;55400;51.824;-0.196;2022-08-19T04:26:51;100311.31;;;19.83;74.00
68145;BME280;55400;51.824;-0.196;2022-08-19T04:29:24;100319.63;;;19.80;74.26
68145;BME280;55400;51.824;-0.196;2022-08-19T04:31:56;100322.56;;;19.76;74.29
68145;BME280;55400;51.824;-0.196;2022-08-19T04:34:35;100321.28;;;19.71;74.60
68145;BME280;55400;51.824;-0.196;2022-08-19T04:37:28;100324.25;;;19.68;74.70
68145;BME280;55400;51.824;-0.196;2022-08-19T04:40:04;100323.38;;;19.67;74.55
68145;BME280;55400;51.824;-0.196;2022-08-19T04:42:57;100317.03;;;19.68;74.63
68145;BME280;55400;51.824;-0.196;2022-08-19T04:45:36;100318.88;;;19.68;74.60
68145;BME280;55400;51.824;-0.196;2022-08-19T04:48:11;100330.44;;;19.68;74.88
68145;BME280;55400;51.824;-0.196;2022-08-19T04:50:55;100331.94;;;19.61;75.13
68145;BME280;55400;51.824;-0.196;2022-08-19T04:53:33;100338.56;;;19.57;74.80
68145;BME280;55400;51.824;-0.196;2022-08-19T04:56:11;100339.81;;;19.53;75.19
68145;BME280;55400;51.824;-0.196;2022-08-19T04:58:42;100336.72;;;19.57;75.02
68145;BME280;55400;51.824;-0.196;2022-08-19T05:01:28;100349.41;;;19.55;75.31
68145;BME280;55400;51.824;-0.196;2022-08-19T05:04:00;100355.84;;;19.53;75.10
68145;BME280;55400;51.824;-0.196;2022-08-19T05:06:30;100342.75;;;19.50;75.06
68145;BME280;55400;51.824;-0.196;2022-08-19T05:09:02;100349.06;;;19.49;75.38
68145;BME280;55400;51.824;-0.196;2022-08-19T05:11:37;100351.06;;;19.47;75.35
68145;BME280;55400;51.824;-0.196;2022-08-19T05:14:12;100353.03;;;19.45;75.43
68145;BME280;55400;51.824;-0.196;2022-08-19T05:16:41;100355.69;;;19.45;75.05
68145;BME280;55400;51.824;-0.196;2022-08-19T05:19:09;100357.81;;;19.41;75.37
68145;BME280;55400;51.824;-0.196;2022-08-19T05:22:00;100366.78;;;19.40;75.28
68145;BME280;55400;51.824;-0.196;2022-08-19T05:24:50;100365.22;;;19.37;74.89
68145;BME280;55400;51.824;-0.196;2022-08-19T05:27:38;100369.16;;;19.33;74.85
68145;BME280;55400;51.824;-0.196;2022-08-19T05:30:11;100370.13;;;19.32;74.76
68145;BME280;55400;51.824;-0.196;2022-08-19T05:32:42;100364.66;;;19.34;74.73
68145;BME280;55400;51.824;-0.196;2022-08-19T05:35:11;100367.34;;;19.34;74.79
68145;BME280;55400;51.824;-0.196;2022-08-19T05:37:42;100378.16;;;19.32;74.64
68145;BME280;55400;51.824;-0.196;2022-08-19T05:40:11;100382.66;;;19.32;74.65
68145;BME280;55400;51.824;-0.196;2022-08-19T05:42:43;100387.16;;;19.31;74.37
68145;BME280;55400;51.824;-0.196;2022-08-19T05:45:21;100370.41;;;19.29;74.28
68145;BME280;55400;51.824;-0.196;2022-08-19T05:47:51;100377.47;;;19.30;74.35
68145;BME280;55400;51.824;-0.196;2022-08-19T05:50:24;100387.00;;;19.33;74.37
68145;BME280;55400;51.824;-0.196;2022-08-19T05:52:55;100391.25;;;19.35;74.32
68145;BME280;55400;51.824;-0.196;2022-08-19T05:55:23;100382.41;;;19.35;74.32
68145;BME280;55400;51.824;-0.196;2022-08-19T05:57:56;100378.03;;;19.34;74.49
68145;BME280;55400;51.824;-0.196;2022-08-19T06:00:31;100378.16;;;19.32;74.05
68145;BME280;55400;51.824;-0.196;2022-08-19T06:03:00;100374.66;;;19.32;74.30
68145;BME280;55400;51.824;-0.196;2022-08-19T06:05:40;100379.00;;;19.33;74.48
68145;BME280;55400;51.824;-0.196;2022-08-19T06:08:18;100377.88;;;19.35;74.20
68145;BME280;55400;51.824;-0.196;2022-08-19T06:11:38;100387.88;;;19.33;74.48
68145;BME280;55400;51.824;-0.196;2022-08-19T06:14:17;100391.25;;;19.35;74.38
68145;BME280;55400;51.824;-0.196;2022-08-19T06:17:00;100386.03;;;19.34;74.21
68145;BME280;55400;51.824;-0.196;2022-08-19T06:19:33;100387.00;;;19.33;74.41
68145;BME280;55400;51.824;-0.196;2022-08-19T06:22:06;100396.88;;;19.32;74.23
68145;BME280;55400;51.824;-0.196;2022-08-19T06:24:38;100399.09;;;19.27;74.27
68145;BME280;55400;51.824;-0.196;2022-08-19T06:27:09;100392.75;;;19.28;74.46
68145;BME280;55400;51.824;-0.196;2022-08-19T06:29:39;100389.38;;;19.26;74.33
68145;BME280;55400;51.824;-0.196;2022-08-19T06:32:06;100390.50;;;19.23;74.01
68145;BME280;55400;51.824;-0.196;2022-08-19T06:34:37;100392.19;;;19.24;73.95
68145;BME280;55400;51.824;-0.196;2022-08-19T06:37:08;100387.69;;;19.25;74.24
68145;BME280;55400;51.824;-0.196;2022-08-19T06:39:50;100399.09;;;19.27;73.89
68145;BME280;55400;51.824;-0.196;2022-08-19T06:42:23;100392.06;;;19.26;73.98
68145;BME280;55400;51.824;-0.196;2022-08-19T06:44:53;100390.34;;;19.25;73.70
68145;BME280;55400;51.824;-0.196;2022-08-19T06:47:21;100387.81;;;19.23;73.87
68145;BME280;55400;51.824;-0.196;2022-08-19T06:49:56;100387.69;;;19.25;74.04
68145;BME280;55400;51.824;-0.196;2022-08-19T06:52:30;100388.81;;;19.22;73.76
68145;BME280;55400;51.824;-0.196;2022-08-19T06:55:07;100403.00;;;19.23;74.04
68145;BME280;55400;51.824;-0.196;2022-08-19T06:57:36;100400.34;;;19.23;74.04
68145;BME280;55400;51.824;-0.196;2022-08-19T07:00:06;100401.56;;;19.19;73.83
68145;BME280;55400;51.824;-0.196;2022-08-19T07:02:41;100406.09;;;19.18;73.83
68145;BME280;55400;51.824;-0.196;2022-08-19T07:05:24;100414.94;;;19.19;73.52
68145;BME280;55400;51.824;-0.196;2022-08-19T07:07:55;100405.94;;;19.20;73.24
68145;BME280;55400;51.824;-0.196;2022-08-19T07:10:31;100414.09;;;19.18;73.07
68145;BME280;55400;51.824;-0.196;2022-08-19T07:13:03;100413.84;;;19.21;72.88
68145;BME280;55400;51.824;-0.196;2022-08-19T07:15:33;100411.75;;;19.25;72.14
68145;BME280;55400;51.824;-0.196;2022-08-19T07:18:06;100419.63;;;19.27;71.99
68145;BME280;55400;51.824;-0.196;2022-08-19T07:20:38;100420.09;;;19.32;71.46
68145;BME280;55400;51.824;-0.196;2022-08-19T07:23:11;100423.22;;;19.37;71.48
68145;BME280;55400;51.824;-0.196;2022-08-19T07:25:43;100425.03;;;19.36;70.79
68145;BME280;55400;51.824;-0.196;2022-08-19T07:28:19;100420.81;;;19.34;70.48
68145;BME280;55400;51.824;-0.196;2022-08-19T07:30:49;100431.50;;;19.34;70.27
68145;BME280;55400;51.824;-0.196;2022-08-19T07:33:18;100430.66;;;19.33;69.97
68145;BME280;55400;51.824;-0.196;2022-08-19T07:35:49;100435.53;;;19.28;69.54
68145;BME280;55400;51.824;-0.196;2022-08-19T07:38:29;100436.78;;;19.24;69.32
68145;BME280;55400;51.824;-0.196;2022-08-19T07:41:01;100443.81;;;19.25;69.52
68145;BME280;55400;51.824;-0.196;2022-08-19T07:43:31;100444.94;;;19.22;69.27
68145;BME280;55400;51.824;-0.196;2022-08-19T07:46:00;100440.56;;;19.21;69.28
68145;BME280;55400;51.824;-0.196;2022-08-19T07:48:30;100440.56;;;19.21;69.21
68145;BME280;55400;51.824;-0.196;2022-08-19T07:51:00;100442.28;;;19.22;68.93
68145;BME280;55400;51.824;-0.196;2022-08-19T07:53:31;100441.75;;;19.29;68.96
68145;BME280;55400;51.824;-0.196;2022-08-19T07:56:05;100448.38;;;19.34;68.40
68145;BME280;55400;51.824;-0.196;2022-08-19T07:58:37;100447.66;;;19.32;68.38
68145;BME280;55400;51.824;-0.196;2022-08-19T08:01:06;100447.66;;;19.32;68.38
68145;BME280;55400;51.824;-0.196;2022-08-19T08:03:36;100446.56;;;19.35;68.14
68145;BME280;55400;51.824;-0.196;2022-08-19T08:06:23;100449.50;;;19.32;67.84
68145;BME280;55400;51.824;-0.196;2022-08-19T08:09:11;100438.81;;;19.32;67.79
68145;BME280;55400;51.824;-0.196;2022-08-19T08:11:58;100436.25;;;19.30;67.27
68145;BME280;55400;51.824;-0.196;2022-08-19T08:14:46;100429.34;;;19.28;66.93
68145;BME280;55400;51.824;-0.196;2022-08-19T08:17:24;100438.69;;;19.33;67.05
68145;BME280;55400;51.824;-0.196;2022-08-19T08:20:14;100450.06;;;19.35;66.85
68145;BME280;55400;51.824;-0.196;2022-08-19T08:22:46;100446.03;;;19.41;67.13
68145;BME280;55400;51.824;-0.196;2022-08-19T08:25:35;100466.16;;;19.45;66.62
68145;BME280;55400;51.824;-0.196;2022-08-19T08:28:04;100460.94;;;19.43;66.38
68145;BME280;55400;51.824;-0.196;2022-08-19T08:30:32;100464.63;;;19.42;66.05
68145;BME280;55400;51.824;-0.196;2022-08-19T08:33:01;100456.88;;;19.39;66.08
68145;BME280;55400;51.824;-0.196;2022-08-19T08:35:32;100462.78;;;19.43;65.87
68145;BME280;55400;51.824;-0.196;2022-08-19T08:38:03;100452.91;;;19.43;65.80
68145;BME280;55400;51.824;-0.196;2022-08-19T08:41:01;100462.78;;;19.43;65.43
68145;BME280;55400;51.824;-0.196;2022-08-19T08:43:38;100459.72;;;19.48;65.97
68145;BME280;55400;51.824;-0.196;2022-08-19T08:49:15;100464.25;;;19.57;64.27
68145;BME280;55400;51.824;-0.196;2022-08-19T08:52:28;100467.38;;;19.62;63.89
68145;BME280;55400;51.824;-0.196;2022-08-19T08:55:04;100467.53;;;19.70;64.23
68145;BME280;55400;51.824;-0.196;2022-08-19T09:00:37;100464.22;;;19.78;63.94
68145;BME280;55400;51.824;-0.196;2022-08-19T09:03:36;100463.38;;;19.77;63.34
68145;BME280;55400;51.824;-0.196;2022-08-19T09:09:25;100457.22;;;19.87;62.80
68145;BME280;55400;51.824;-0.196;2022-08-19T09:12:28;100451.00;;;19.86;62.19
68145;BME280;55400;51.824;-0.196;2022-08-19T09:15:12;100460.34;;;19.92;62.66
68145;BME280;55400;51.824;-0.196;2022-08-19T09:17:40;100461.75;;;19.96;62.57
68145;BME280;55400;51.824;-0.196;2022-08-19T09:20:23;100448.94;;;20.00;62.10
68145;BME280;55400;51.824;-0.196;2022-08-19T09:22:59;100453.88;;;20.04;62.01
68145;BME280;55400;51.824;-0.196;2022-08-19T09:25:33;100455.19;;;20.10;61.54
68145;BME280;55400;51.824;-0.196;2022-08-19T09:28:03;100447.72;;;20.13;61.05
68145;BME280;55400;51.824;-0.196;2022-08-19T09:30:48;100445.47;;;20.19;60.64
68145;BME280;55400;51.824;-0.196;2022-08-19T09:33:23;100452.53;;;20.20;60.04
68145;BME280;55400;51.824;-0.196;2022-08-19T09:36:08;100446.47;;;20.18;59.62
68145;BME280;55400;51.824;-0.196;2022-08-19T09:38:58;100456.03;;;20.20;59.67
68145;BME280;55400;51.824;-0.196;2022-08-19T09:41:29;100451.69;;;20.19;59.05
68145;BME280;55400;51.824;-0.196;2022-08-19T09:44:02;100461.38;;;20.20;59.24
68145;BME280;55400;51.824;-0.196;2022-08-19T09:46:29;100460.97;;;20.25;59.09
68145;BME280;55400;51.824;-0.196;2022-08-19T09:49:01;100454.94;;;20.32;58.78
68145;BME280;55400;51.824;-0.196;2022-08-19T09:51:37;100456.34;;;20.37;58.58
68145;BME280;55400;51.824;-0.196;2022-08-19T09:54:06;100451.41;;;20.42;58.58
68145;BME280;55400;51.824;-0.196;2022-08-19T09:56:37;100463.97;;;20.41;58.08
68145;BME280;55400;51.824;-0.196;2022-08-19T09:59:10;100466.50;;;20.43;58.27
68145;BME280;55400;51.824;-0.196;2022-08-19T10:01:41;100468.03;;;20.45;58.56
68145;BME280;55400;51.824;-0.196;2022-08-19T10:04:09;100458.91;;;20.48;58.49
68145;BME280;55400;51.824;-0.196;2022-08-19T10:06:48;100464.94;;;20.50;58.47
68145;BME280;55400;51.824;-0.196;2022-08-19T10:09:23;100460.19;;;20.54;57.94
68145;BME280;55400;51.824;-0.196;2022-08-19T10:12:04;100459.91;;;20.57;57.18
68145;BME280;55400;51.824;-0.196;2022-08-19T10:14:36;100461.28;;;20.61;56.80
68145;BME280;55400;51.824;-0.196;2022-08-19T10:17:08;100451.06;;;20.66;56.41
68145;BME280;55400;51.824;-0.196;2022-08-19T10:19:47;100460.91;;;20.65;56.02
68145;BME280;55400;51.824;-0.196;2022-08-19T10:22:23;100457.94;;;20.68;55.88
68145;BME280;55400;51.824;-0.196;2022-08-19T10:24:53;100467.25;;;20.74;56.17
68145;BME280;55400;51.824;-0.196;2022-08-19T10:27:24;100470.63;;;20.76;56.22
68145;BME280;55400;51.824;-0.196;2022-08-19T10:29:56;100476.97;;;20.75;56.61
68145;BME280;55400;51.824;-0.196;2022-08-19T10:32:27;100470.63;;;20.76;56.50
68145;BME280;55400;51.824;-0.196;2022-08-19T10:35:04;100471.19;;;20.80;56.02
68145;BME280;55400;51.824;-0.196;2022-08-19T10:37:41;100462.19;;;20.81;55.64
68145;BME280;55400;51.824;-0.196;2022-08-19T10:40:25;100465.28;;;20.86;55.29
68145;BME280;55400;51.824;-0.196;2022-08-19T10:42:58;100472.03;;;20.90;55.32
68145;BME280;55400;51.824;-0.196;2022-08-19T10:45:27;100467.66;;;20.89;55.23
68145;BME280;55400;51.824;-0.196;2022-08-19T10:48:19;100465.56;;;20.93;54.77
68145;BME280;55400;51.824;-0.196;2022-08-19T10:50:50;100464.56;;;20.94;54.54
68145;BME280;55400;51.824;-0.196;2022-08-19T10:53:48;100468.81;;;20.96;54.51
68145;BME280;55400;51.824;-0.196;2022-08-19T10:56:18;100465.69;;;21.01;53.79
68145;BME280;55400;51.824;-0.196;2022-08-19T10:59:05;100473.59;;;21.02;53.65
68145;BME280;55400;51.824;-0.196;2022-08-19T11:01:36;100477.84;;;21.05;53.29
68145;BME280;55400;51.824;-0.196;2022-08-19T11:04:12;100469.94;;;21.03;53.21
68145;BME280;55400;51.824;-0.196;2022-08-19T11:06:55;100477.38;;;21.00;53.02
68145;BME280;55400;51.824;-0.196;2022-08-19T11:09:25;100490.94;;;20.98;52.72
68145;BME280;55400;51.824;-0.196;2022-08-19T11:12:00;100491.50;;;21.02;52.74
68145;BME280;55400;51.824;-0.196;2022-08-19T11:14:33;100490.38;;;21.04;51.68
68145;BME280;55400;51.824;-0.196;2022-08-19T11:17:08;100489.94;;;21.09;51.30
68145;BME280;55400;51.824;-0.196;2022-08-19T11:19:36;100487.94;;;21.11;50.90
68145;BME280;55400;51.824;-0.196;2022-08-19T11:22:14;100483.75;;;21.09;50.74
68145;BME280;55400;51.824;-0.196;2022-08-19T11:25:03;100480.19;;;21.08;50.58
68145;BME280;55400;51.824;-0.196;2022-08-19T11:27:38;100491.94;;;21.07;49.59
68145;BME280;55400;51.824;-0.196;2022-08-19T11:30:09;100483.88;;;21.07;50.00
68145;BME280;55400;51.824;-0.196;2022-08-19T11:32:42;100484.56;;;21.09;49.23
68145;BME280;55400;51.824;-0.196;2022-08-19T11:35:16;100489.25;;;21.07;49.06
68145;BME280;55400;51.824;-0.196;2022-08-19T11:37:48;100495.59;;;21.06;49.19
68145;BME280;55400;51.824;-0.196;2022-08-19T11:40:15;100494.63;;;20.97;47.94
68145;BME280;55400;51.824;-0.196;2022-08-19T11:42:42;100496.13;;;21.10;49.34
68145;BME280;55400;51.824;-0.196;2022-08-19T11:45:27;100496.00;;;21.21;48.71
68145;BME280;55400;51.824;-0.196;2022-08-19T11:47:58;100496.13;;;21.29;48.45
68145;BME280;55400;51.824;-0.196;2022-08-19T11:50:28;100501.19;;;21.32;47.64
68145;BME280;55400;51.824;-0.196;2022-08-19T11:52:57;100497.53;;;21.33;47.90
68145;BME280;55400;51.824;-0.196;2022-08-19T11:55:25;100501.59;;;21.37;47.15
68145;BME280;55400;51.824;-0.196;2022-08-19T11:57:53;100490.72;;;21.39;45.73
68145;BME280;55400;51.824;-0.196;2022-08-19T12:00:21;100494.81;;;21.43;45.39
68145;BME280;55400;51.824;-0.196;2022-08-19T12:02:52;100502.88;;;21.53;47.67
68145;BME280;55400;51.824;-0.196;2022-08-19T12:05:22;100495.06;;;21.60;47.41
68145;BME280;55400;51.824;-0.196;2022-08-19T12:07:55;100499.16;;;21.64;46.52
68145;BME280;55400;51.824;-0.196;2022-08-19T12:10:30;100502.97;;;21.71;45.90
68145;BME280;55400;51.824;-0.196;2022-08-19T12:13:01;100502.09;;;21.80;45.68
68145;BME280;55400;51.824;-0.196;2022-08-19T12:15:40;100502.88;;;21.90;45.10
68145;BME280;55400;51.824;-0.196;2022-08-19T12:18:09;100499.59;;;21.97;44.19
68145;BME280;55400;51.824;-0.196;2022-08-19T12:20:39;100494.38;;;21.95;43.81
68145;BME280;55400;51.824;-0.196;2022-08-19T12:23:09;100492.69;;;21.94;43.81
68145;BME280;55400;51.824;-0.196;2022-08-19T12:25:44;100500.19;;;21.90;43.30
68145;BME280;55400;51.824;-0.196;2022-08-19T12:28:27;100502.13;;;21.98;43.07
68145;BME280;55400;51.824;-0.196;2022-08-19T12:30:56;100498.25;;;22.10;42.24
68145;BME280;55400;51.824;-0.196;2022-08-19T12:33:24;100502.19;;;22.16;41.44
68145;BME280;55400;51.824;-0.196;2022-08-19T12:36:00;100498.34;;;22.19;40.79
68145;BME280;55400;51.824;-0.196;2022-08-19T12:38:38;100491.69;;;22.23;40.64
68145;BME280;55400;51.824;-0.196;2022-08-19T12:41:10;100499.28;;;22.27;40.53
68145;BME280;55400;51.824;-0.196;2022-08-19T12:43:40;100494.72;;;22.38;40.79
68145;BME280;55400;51.824;-0.196;2022-08-19T12:46:12;100494.13;;;22.44;39.86
68145;BME280;55400;51.824;-0.196;2022-08-19T12:48:48;100486.22;;;22.42;39.13
68145;BME280;55400;51.824;-0.196;2022-08-19T12:51:23;100489.84;;;22.51;40.98
68145;BME280;55400;51.824;-0.196;2022-08-19T12:53:52;100486.25;;;22.60;40.28
68145;BME280;55400;51.824;-0.196;2022-08-19T12:56:21;100483.63;;;22.69;39.96
68145;BME280;55400;51.824;-0.196;2022-08-19T12:58:50;100486.84;;;22.72;39.87
68145;BME280;55400;51.824;-0.196;2022-08-19T13:01:24;100478.63;;;22.74;39.29
68145;BME280;55400;51.824;-0.196;2022-08-19T13:03:54;100476.78;;;22.74;38.90
68145;BME280;55400;51.824;-0.196;2022-08-19T13:06:23;100471.25;;;22.76;38.94
68145;BME280;55400;51.824;-0.196;2022-08-19T13:08:52;100473.50;;;22.80;38.84
68145;BME280;55400;51.824;-0.196;2022-08-19T13:11:25;100477.53;;;22.85;38.93
68145;BME280;55400;51.824;-0.196;2022-08-19T13:13:59;100484.69;;;22.94;38.65
68145;BME280;55400;51.824;-0.196;2022-08-19T13:16:27;100465.38;;;22.98;38.18
68145;BME280;55400;51.824;-0.196;2022-08-19T13:19:01;100485.44;;;23.04;38.66
68145;BME280;55400;51.824;-0.196;2022-08-19T13:21:33;100490.16;;;23.02;37.95
68145;BME280;55400;51.824;-0.196;2022-08-19T13:24:02;100476.16;;;22.98;37.85
68145;BME280;55400;51.824;-0.196;2022-08-19T13:26:35;100470.94;;;22.97;37.98